createdAt,value
2022-09-15T00:00:26.602Z,14.93
2022-09-15T00:01:26.693Z,14.93
2022-09-15T00:02:26.690Z,14.92
2022-09-15T00:03:26.646Z,14.90
2022-09-15T00:04:27.311Z,14.92
2022-09-15T00:05:26.584Z,14.86
2022-09-15T00:06:26.570Z,14.86
2022-09-15T00:07:26.552Z,14.85
2022-09-15T00:08:26.592Z,14.82
2022-09-15T00:09:26.541Z,14.79
2022-09-15T00:10:26.492Z,14.78
2022-09-15T00:11:26.502Z,14.74
2022-09-15T00:12:26.513Z,14.74
2022-09-15T00:13:26.481Z,14.73
2022-09-15T00:14:26.463Z,14.71
2022-09-15T00:15:26.508Z,14.70
2022-09-15T00:16:26.508Z,14.70
2022-09-15T00:17:26.423Z,14.68
2022-09-15T00:18:26.399Z,14.70
2022-09-15T00:19:26.461Z,14.63
2022-09-15T00:20:26.435Z,14.67
2022-09-15T00:21:26.501Z,14.66
2022-09-15T00:22:26.402Z,14.62
2022-09-15T00:23:26.385Z,14.59
2022-09-15T00:24:26.371Z,14.61
2022-09-15T00:25:26.366Z,14.56
2022-09-15T00:26:26.398Z,14.56
2022-09-15T00:27:26.351Z,14.53
2022-09-15T00:28:26.322Z,14.51
2022-09-15T00:29:26.328Z,14.49
2022-09-15T00:30:26.372Z,14.45
2022-09-15T00:31:26.447Z,14.44
2022-09-15T00:32:26.280Z,14.45
2022-09-15T00:33:26.331Z,14.44
2022-09-15T00:34:26.262Z,14.43
2022-09-15T00:35:26.261Z,14.44
2022-09-15T00:36:26.255Z,14.41
2022-09-15T00:37:26.237Z,14.41
2022-09-15T00:38:26.230Z,14.40
2022-09-15T00:39:26.211Z,14.38
2022-09-15T00:40:26.315Z,14.36
2022-09-15T00:41:26.191Z,14.36
2022-09-15T00:42:26.229Z,14.34
2022-09-15T00:43:26.171Z,14.31
2022-09-15T00:44:26.179Z,14.30
2022-09-15T00:45:26.260Z,14.26
2022-09-15T00:46:26.121Z,14.26
2022-09-15T00:47:26.161Z,14.22
2022-09-15T00:48:26.120Z,14.22
2022-09-15T00:49:26.110Z,14.20
2022-09-15T00:50:26.100Z,14.18
2022-09-15T00:51:26.149Z,14.16
2022-09-15T00:52:26.041Z,14.16
2022-09-15T00:53:26.061Z,14.16
2022-09-15T00:54:26.081Z,14.16
2022-09-15T00:55:26.052Z,14.15
2022-09-15T00:56:26.022Z,14.15
2022-09-15T00:57:26.093Z,14.11
2022-09-15T00:58:26.050Z,14.11
2022-09-15T00:59:26.012Z,14.08
2022-09-15T01:00:26.011Z,14.07
2022-09-15T01:01:26.059Z,14.05
2022-09-15T01:02:26.018Z,14.04
2022-09-15T01:03:25.981Z,14.03
2022-09-15T01:04:25.964Z,14.01
2022-09-15T01:05:25.941Z,14.00
2022-09-15T01:06:25.890Z,14.00
2022-09-15T01:07:25.890Z,13.98
2022-09-15T01:08:25.911Z,13.98
2022-09-15T01:09:25.881Z,13.98
2022-09-15T01:10:25.924Z,13.97
2022-09-15T01:11:25.877Z,13.97
2022-09-15T01:12:25.853Z,13.95
2022-09-15T01:13:25.880Z,13.93
2022-09-15T01:14:25.833Z,13.95
2022-09-15T01:15:25.859Z,13.95
2022-09-15T01:16:25.902Z,13.95
2022-09-15T01:17:25.820Z,13.94
2022-09-15T01:18:25.790Z,13.93
2022-09-15T01:19:25.838Z,13.94
2022-09-15T01:20:25.811Z,13.94
2022-09-15T01:21:25.779Z,13.95
2022-09-15T01:22:25.760Z,13.97
2022-09-15T01:23:25.760Z,13.95
2022-09-15T01:24:25.711Z,13.97
2022-09-15T01:25:25.705Z,13.95
2022-09-15T01:26:25.779Z,13.95
2022-09-15T01:27:41.602Z,13.98
2022-09-15T01:28:26.679Z,13.98
2022-09-15T01:29:25.682Z,13.98
2022-09-15T01:30:25.690Z,14.01
2022-09-15T01:31:25.754Z,13.95
2022-09-15T01:32:25.674Z,13.98
2022-09-15T01:33:25.673Z,13.97
2022-09-15T01:34:25.633Z,13.98
2022-09-15T01:35:25.592Z,13.97
2022-09-15T01:36:25.610Z,13.97
2022-09-15T01:37:25.620Z,13.97
2022-09-15T01:38:25.592Z,13.97
2022-09-15T01:39:25.569Z,13.95
2022-09-15T01:40:25.651Z,13.97
2022-09-15T01:41:25.589Z,13.97
2022-09-15T01:42:25.519Z,13.97
2022-09-15T01:43:25.500Z,13.97
2022-09-15T01:44:25.551Z,13.98
2022-09-15T01:45:25.541Z,13.97
2022-09-15T01:46:25.502Z,13.98
2022-09-15T01:47:25.500Z,13.98
2022-09-15T01:48:25.489Z,13.95
2022-09-15T01:49:25.442Z,13.97
2022-09-15T01:50:25.450Z,13.98
2022-09-15T01:51:25.458Z,13.98
2022-09-15T01:52:25.470Z,14.00
2022-09-15T01:53:25.515Z,13.98
2022-09-15T01:54:25.499Z,13.98
2022-09-15T01:55:25.389Z,14.01
2022-09-15T01:56:25.428Z,14.03
2022-09-15T01:57:25.400Z,14.01
2022-09-15T01:58:25.391Z,14.01
2022-09-15T01:59:25.408Z,14.03
2022-09-15T02:00:25.349Z,14.04
2022-09-15T02:01:25.455Z,14.04
2022-09-15T02:02:25.396Z,14.04
2022-09-15T02:03:25.339Z,14.04
2022-09-15T02:04:25.309Z,14.04
2022-09-15T02:05:25.310Z,14.05
2022-09-15T02:06:25.289Z,14.04
2022-09-15T02:07:25.269Z,14.05
2022-09-15T02:08:25.317Z,14.07
2022-09-15T02:09:25.258Z,14.08
2022-09-15T02:10:25.256Z,14.08
2022-09-15T02:11:25.236Z,14.07
2022-09-15T02:12:25.263Z,14.07
2022-09-15T02:13:25.219Z,14.07
2022-09-15T02:14:25.219Z,14.07
2022-09-15T02:15:25.238Z,14.05
2022-09-15T02:16:25.278Z,14.07
2022-09-15T02:17:25.181Z,14.07
2022-09-15T02:18:25.169Z,14.11
2022-09-15T02:19:25.173Z,14.07
2022-09-15T02:20:25.129Z,14.08
2022-09-15T02:21:25.119Z,14.08
2022-09-15T02:22:25.159Z,14.08
2022-09-15T02:23:25.077Z,14.07
2022-09-15T02:24:25.078Z,14.11
2022-09-15T02:25:25.066Z,14.07
2022-09-15T02:26:25.079Z,14.11
2022-09-15T02:27:25.079Z,14.11
2022-09-15T02:28:25.069Z,14.12
2022-09-15T02:29:25.086Z,14.11
2022-09-15T02:30:25.020Z,14.13
2022-09-15T02:31:25.122Z,14.12
2022-09-15T02:32:25.009Z,14.13
2022-09-15T02:33:25.017Z,14.13
2022-09-15T02:34:25.000Z,14.18
2022-09-15T02:35:24.996Z,14.13
2022-09-15T02:36:24.990Z,14.15
2022-09-15T02:37:24.948Z,14.16
2022-09-15T02:38:24.959Z,14.16
2022-09-15T02:39:24.940Z,14.16
2022-09-15T02:40:24.959Z,14.18
2022-09-15T02:41:24.919Z,14.19
2022-09-15T02:42:24.889Z,14.18
2022-09-15T02:43:24.899Z,14.18
2022-09-15T02:44:24.893Z,14.18
2022-09-15T02:45:24.934Z,14.19
2022-09-15T02:46:24.880Z,14.22
2022-09-15T02:47:24.880Z,14.20
2022-09-15T02:48:24.839Z,14.23
2022-09-15T02:49:24.841Z,14.23
2022-09-15T02:50:24.829Z,14.23
2022-09-15T02:51:24.811Z,14.23
2022-09-15T02:52:24.796Z,14.25
2022-09-15T02:53:24.796Z,14.25
2022-09-15T02:54:24.808Z,14.25
2022-09-15T02:55:24.759Z,14.22
2022-09-15T02:56:24.765Z,14.22
2022-09-15T02:57:24.759Z,14.22
2022-09-15T02:58:24.738Z,14.25
2022-09-15T02:59:24.687Z,14.23
2022-09-15T03:00:24.697Z,14.25
2022-09-15T03:01:24.785Z,14.23
2022-09-15T03:02:24.771Z,14.23
2022-09-15T03:03:24.682Z,14.22
2022-09-15T03:04:24.697Z,14.26
2022-09-15T03:05:24.668Z,14.23
2022-09-15T03:06:24.616Z,14.26
2022-09-15T03:07:24.618Z,14.25
2022-09-15T03:08:24.618Z,14.25
2022-09-15T03:09:24.598Z,14.26
2022-09-15T03:10:24.598Z,14.28
2022-09-15T03:11:24.598Z,14.28
2022-09-15T03:12:24.608Z,14.28
2022-09-15T03:13:24.568Z,14.26
2022-09-15T03:14:24.558Z,14.28
2022-09-15T03:15:24.626Z,14.28
2022-09-15T03:16:24.609Z,14.28
2022-09-15T03:17:24.528Z,14.30
2022-09-15T03:18:24.509Z,14.26
2022-09-15T03:19:24.558Z,14.26
2022-09-15T03:20:24.485Z,14.28
2022-09-15T03:21:24.478Z,14.30
2022-09-15T03:22:24.497Z,14.30
2022-09-15T03:23:24.459Z,14.28
2022-09-15T03:24:24.461Z,14.30
2022-09-15T03:25:24.428Z,14.30
2022-09-15T03:26:24.430Z,14.31
2022-09-15T03:27:24.408Z,14.30
2022-09-15T03:28:24.407Z,14.31
2022-09-15T03:29:24.397Z,14.31
2022-09-15T03:30:24.399Z,14.33
2022-09-15T03:31:24.465Z,14.31
2022-09-15T03:32:24.358Z,14.33
2022-09-15T03:33:24.350Z,14.33
2022-09-15T03:34:24.337Z,14.34
2022-09-15T03:35:24.337Z,14.34
2022-09-15T03:36:24.358Z,14.36
2022-09-15T03:37:24.306Z,14.36
2022-09-15T03:38:24.337Z,14.33
2022-09-15T03:39:24.300Z,14.36
2022-09-15T03:40:24.482Z,14.36
2022-09-15T03:41:24.270Z,14.34
2022-09-15T03:42:24.256Z,14.34
2022-09-15T03:43:24.267Z,14.34
2022-09-15T03:44:24.226Z,14.36
2022-09-15T03:45:24.250Z,14.36
2022-09-15T03:46:24.197Z,14.34
2022-09-15T03:47:24.217Z,14.34
2022-09-15T03:48:24.213Z,14.36
2022-09-15T03:49:24.179Z,14.34
2022-09-15T03:50:24.189Z,14.34
2022-09-15T03:51:24.157Z,14.33
2022-09-15T03:52:24.228Z,14.34
2022-09-15T03:53:24.119Z,14.34
2022-09-15T03:54:24.151Z,14.33
2022-09-15T03:55:24.117Z,14.31
2022-09-15T03:56:24.098Z,14.33
2022-09-15T03:57:24.170Z,14.31
2022-09-15T03:58:26.820Z,14.34
2022-09-15T03:59:24.055Z,14.33
2022-09-15T04:00:24.057Z,14.33
2022-09-15T04:01:24.091Z,14.34
2022-09-15T04:02:24.128Z,14.33
2022-09-15T04:03:24.031Z,14.33
2022-09-15T04:04:24.014Z,14.34
2022-09-15T04:05:24.035Z,14.33
2022-09-15T04:06:24.010Z,14.34
2022-09-15T04:07:24.009Z,14.33
2022-09-15T04:08:24.011Z,14.34
2022-09-15T04:09:23.997Z,14.34
2022-09-15T04:10:23.966Z,14.34
2022-09-15T04:11:23.948Z,14.34
2022-09-15T04:12:23.968Z,14.36
2022-09-15T04:13:28.476Z,14.37
2022-09-15T04:14:23.961Z,14.36
2022-09-15T04:15:23.977Z,14.37
2022-09-15T04:16:24.005Z,14.34
2022-09-15T04:17:23.917Z,14.37
2022-09-15T04:18:24.521Z,14.38
2022-09-15T04:19:23.889Z,14.37
2022-09-15T04:20:23.894Z,14.37
2022-09-15T04:21:23.868Z,14.37
2022-09-15T04:22:23.836Z,14.38
2022-09-15T04:23:23.850Z,14.36
2022-09-15T04:24:23.831Z,14.34
2022-09-15T04:25:23.804Z,14.34
2022-09-15T04:26:23.776Z,14.33
2022-09-15T04:27:23.787Z,14.31
2022-09-15T04:28:23.756Z,14.34
2022-09-15T04:29:23.751Z,14.31
2022-09-15T04:30:24.015Z,14.30
2022-09-15T04:31:23.795Z,14.26
2022-09-15T04:32:23.786Z,14.25
2022-09-15T04:33:23.752Z,14.23
2022-09-15T04:34:23.687Z,14.22
2022-09-15T04:35:23.659Z,14.20
2022-09-15T04:36:23.684Z,14.18
2022-09-15T04:37:23.715Z,14.19
2022-09-15T04:38:23.655Z,14.19
2022-09-15T04:39:23.656Z,14.16
2022-09-15T04:40:23.722Z,14.16
2022-09-15T04:41:23.657Z,14.13
2022-09-15T04:42:23.606Z,14.13
2022-09-15T04:43:23.619Z,14.13
2022-09-15T04:44:23.586Z,14.12
2022-09-15T04:45:23.588Z,14.13
2022-09-15T04:46:23.687Z,14.12
2022-09-15T04:47:23.694Z,14.11
2022-09-15T04:48:23.585Z,14.13
2022-09-15T04:49:23.538Z,14.11
2022-09-15T04:50:23.774Z,14.13
2022-09-15T04:51:23.567Z,14.12
2022-09-15T04:52:23.515Z,14.13
2022-09-15T04:53:23.515Z,14.15
2022-09-15T04:54:23.546Z,14.13
2022-09-15T04:55:23.510Z,14.13
2022-09-15T04:56:23.531Z,14.15
2022-09-15T04:57:23.491Z,14.15
2022-09-15T04:58:23.511Z,14.18
2022-09-15T04:59:23.449Z,14.15
2022-09-15T05:00:23.476Z,14.15
2022-09-15T05:01:23.559Z,14.16
2022-09-15T05:02:23.454Z,14.16
2022-09-15T05:03:23.425Z,14.19
2022-09-15T05:04:23.411Z,14.15
2022-09-15T05:05:23.425Z,14.18
2022-09-15T05:06:23.399Z,14.19
2022-09-15T05:07:23.361Z,14.19
2022-09-15T05:08:23.436Z,14.20
2022-09-15T05:09:23.385Z,14.20
2022-09-15T05:10:23.374Z,14.20
2022-09-15T05:11:23.346Z,14.19
2022-09-15T05:12:23.308Z,14.23
2022-09-15T05:13:23.305Z,14.23
2022-09-15T05:14:23.297Z,14.23
2022-09-15T05:15:23.299Z,14.23
2022-09-15T05:16:23.352Z,14.23
2022-09-15T05:17:26.700Z,14.26
2022-09-15T05:18:23.244Z,14.26
2022-09-15T05:19:23.259Z,14.26
2022-09-15T05:20:23.215Z,14.25
2022-09-15T05:21:23.188Z,14.30
2022-09-15T05:22:23.249Z,14.28
2022-09-15T05:23:23.195Z,14.30
2022-09-15T05:24:23.182Z,14.34
2022-09-15T05:25:23.186Z,14.36
2022-09-15T05:26:23.176Z,14.37
2022-09-15T05:27:23.157Z,14.40
2022-09-15T05:28:23.125Z,14.40
2022-09-15T05:29:23.205Z,14.41
2022-09-15T05:30:37.714Z,14.48
2022-09-15T05:31:24.180Z,14.48
2022-09-15T05:32:23.085Z,14.51
2022-09-15T05:33:23.089Z,14.52
2022-09-15T05:34:23.065Z,14.52
2022-09-15T05:35:23.083Z,14.53
2022-09-15T05:36:23.115Z,14.56
2022-09-15T05:37:23.041Z,14.56
2022-09-15T05:38:23.045Z,14.59
2022-09-15T05:39:23.034Z,14.58
2022-09-15T05:40:23.107Z,14.63
2022-09-15T05:41:22.986Z,14.63
2022-09-15T05:42:23.005Z,14.66
2022-09-15T05:43:23.023Z,14.67
2022-09-15T05:44:22.971Z,14.70
2022-09-15T05:45:22.958Z,14.70
2022-09-15T05:46:22.967Z,14.73
2022-09-15T05:47:22.973Z,14.74
2022-09-15T05:48:22.935Z,14.81
2022-09-15T05:49:22.902Z,14.82
2022-09-15T05:50:22.954Z,14.87
2022-09-15T05:51:22.889Z,14.92
2022-09-15T05:52:22.864Z,14.94
2022-09-15T05:53:22.875Z,14.99
2022-09-15T05:54:22.921Z,15.04
2022-09-15T05:55:22.855Z,15.04
2022-09-15T05:56:22.833Z,15.07
2022-09-15T05:57:22.867Z,15.08
2022-09-15T05:58:22.834Z,15.08
2022-09-15T05:59:22.814Z,15.10
2022-09-15T06:00:22.784Z,15.12
2022-09-15T06:01:22.898Z,15.12
2022-09-15T06:02:22.801Z,15.14
2022-09-15T06:03:24.485Z,15.14
2022-09-15T06:04:22.753Z,15.15
2022-09-15T06:05:22.733Z,15.15
2022-09-15T06:06:22.723Z,15.15
2022-09-15T06:07:22.727Z,15.15
2022-09-15T06:08:22.773Z,15.17
2022-09-15T06:09:22.694Z,15.18
2022-09-15T06:10:22.748Z,15.18
2022-09-15T06:11:22.747Z,15.19
2022-09-15T06:12:22.676Z,15.18
2022-09-15T06:13:22.680Z,15.22
2022-09-15T06:14:22.743Z,15.22
2022-09-15T06:15:22.741Z,15.23
2022-09-15T06:16:22.715Z,15.26
2022-09-15T06:17:22.606Z,15.32
2022-09-15T06:18:22.676Z,15.35
2022-09-15T06:19:22.584Z,15.36
2022-09-15T06:20:22.564Z,15.41
2022-09-15T06:21:23.305Z,15.44
2022-09-15T06:22:22.575Z,15.50
2022-09-15T06:23:22.543Z,15.50
2022-09-15T06:24:22.530Z,15.57
2022-09-15T06:25:22.561Z,15.63
2022-09-15T06:26:22.526Z,15.69
2022-09-15T06:27:22.479Z,15.75
2022-09-15T06:28:22.492Z,15.80
2022-09-15T06:29:22.537Z,15.83
2022-09-15T06:30:22.471Z,15.92
2022-09-15T06:31:22.483Z,15.99
2022-09-15T06:32:22.455Z,16.06
2022-09-15T06:33:22.479Z,16.13
2022-09-15T06:34:22.434Z,16.18
2022-09-15T06:35:22.445Z,16.22
2022-09-15T06:36:22.434Z,16.26
2022-09-15T06:37:22.383Z,16.28
2022-09-15T06:38:22.393Z,16.31
2022-09-15T06:39:22.365Z,16.37
2022-09-15T06:40:22.408Z,16.41
2022-09-15T06:41:22.414Z,16.50
2022-09-15T06:42:22.344Z,16.54
2022-09-15T06:43:22.373Z,16.59
2022-09-15T06:44:22.325Z,16.66
2022-09-15T06:45:22.303Z,16.72
2022-09-15T06:46:22.408Z,16.77
2022-09-15T06:47:22.261Z,16.79
2022-09-15T06:48:24.801Z,16.83
2022-09-15T06:49:22.254Z,16.83
2022-09-15T06:50:22.291Z,16.80
2022-09-15T06:51:22.242Z,16.80
2022-09-15T06:52:22.205Z,16.79
2022-09-15T06:53:22.226Z,16.74
2022-09-15T06:54:22.225Z,16.74
2022-09-15T06:55:22.193Z,16.73
2022-09-15T06:56:22.173Z,16.73
2022-09-15T06:57:22.206Z,16.72
2022-09-15T06:58:22.199Z,16.72
2022-09-15T06:59:22.145Z,16.68
2022-09-15T07:00:22.146Z,16.68
2022-09-15T07:01:22.124Z,16.66
2022-09-15T07:02:22.255Z,16.69
2022-09-15T07:03:22.218Z,16.72
2022-09-15T07:04:22.129Z,16.72
2022-09-15T07:05:22.102Z,16.74
2022-09-15T07:06:22.086Z,16.79
2022-09-15T07:07:22.088Z,16.83
2022-09-15T07:08:22.071Z,16.91
2022-09-15T07:09:22.047Z,16.98
2022-09-15T07:10:22.054Z,17.04
2022-09-15T07:11:22.048Z,17.04
2022-09-15T07:12:22.014Z,17.09
2022-09-15T07:13:21.984Z,17.09
2022-09-15T07:14:22.007Z,17.10
2022-09-15T07:15:21.983Z,17.12
2022-09-15T07:16:22.074Z,17.14
2022-09-15T07:17:21.939Z,17.17
2022-09-15T07:18:21.949Z,17.20
2022-09-15T07:19:21.933Z,17.28
2022-09-15T07:20:21.935Z,17.34
2022-09-15T07:21:22.043Z,17.38
2022-09-15T07:22:21.923Z,17.42
2022-09-15T07:23:21.879Z,17.49
2022-09-15T07:24:22.000Z,17.52
2022-09-15T07:25:21.894Z,17.50
2022-09-15T07:26:21.844Z,17.49
2022-09-15T07:27:21.848Z,17.46
2022-09-15T07:28:21.856Z,17.42
2022-09-15T07:29:21.853Z,17.46
2022-09-15T07:30:21.814Z,17.50
2022-09-15T07:31:21.878Z,17.50
2022-09-15T07:32:21.814Z,17.54
2022-09-15T07:33:21.773Z,17.60
2022-09-15T07:34:21.793Z,17.71
2022-09-15T07:35:21.756Z,17.76
2022-09-15T07:36:21.786Z,17.86
2022-09-15T07:37:21.754Z,17.88
2022-09-15T07:38:21.952Z,17.93
2022-09-15T07:39:21.774Z,17.98
2022-09-15T07:40:21.839Z,18.02
2022-09-15T07:41:21.715Z,18.05
2022-09-15T07:42:21.720Z,18.05
2022-09-15T07:43:21.694Z,18.02
2022-09-15T07:44:21.686Z,18.03
2022-09-15T07:45:21.755Z,17.98
2022-09-15T07:46:21.697Z,18.03
2022-09-15T07:47:21.611Z,18.00
2022-09-15T07:48:26.241Z,17.98
2022-09-15T07:49:21.722Z,18.05
2022-09-15T07:50:21.614Z,18.13
2022-09-15T07:51:21.627Z,18.24
2022-09-15T07:52:21.554Z,18.34
2022-09-15T07:53:21.688Z,18.46
2022-09-15T07:54:22.959Z,18.57
2022-09-15T07:55:21.534Z,18.64
2022-09-15T07:56:21.542Z,18.78
2022-09-15T07:57:21.526Z,18.85
2022-09-15T07:58:21.504Z,18.89
2022-09-15T07:59:21.494Z,18.89
2022-09-15T08:00:21.553Z,18.89
2022-09-15T08:01:21.516Z,18.88
2022-09-15T08:02:21.544Z,18.82
2022-09-15T08:03:21.704Z,18.74
2022-09-15T08:04:21.484Z,18.66
2022-09-15T08:05:21.413Z,18.58
2022-09-15T08:06:21.486Z,18.51
2022-09-15T08:07:21.477Z,18.45
2022-09-15T08:08:21.417Z,18.42
2022-09-15T08:09:21.395Z,18.41
2022-09-15T08:10:21.435Z,18.43
2022-09-15T08:11:21.436Z,18.42
2022-09-15T08:12:21.444Z,18.49
2022-09-15T08:13:21.333Z,18.53
2022-09-15T08:14:21.355Z,18.61
2022-09-15T08:15:21.351Z,18.76
2022-09-15T08:16:21.321Z,18.96
2022-09-15T08:17:21.264Z,19.08
2022-09-15T08:18:21.295Z,19.17
2022-09-15T08:19:21.333Z,19.24
2022-09-15T08:20:21.273Z,19.24
2022-09-15T08:21:21.237Z,19.22
2022-09-15T08:22:21.246Z,19.20
2022-09-15T08:23:21.215Z,19.19
2022-09-15T08:24:21.184Z,19.19
2022-09-15T08:25:21.235Z,19.20
2022-09-15T08:26:21.228Z,19.34
2022-09-15T08:27:21.155Z,19.44
2022-09-15T08:28:21.175Z,19.57
2022-09-15T08:29:21.174Z,19.70
2022-09-15T08:30:21.418Z,19.75
2022-09-15T08:31:21.193Z,19.77
2022-09-15T08:32:21.176Z,19.77
2022-09-15T08:33:21.145Z,19.77
2022-09-15T08:34:21.095Z,19.81
2022-09-15T08:35:21.104Z,19.77
2022-09-15T08:36:21.100Z,19.77
2022-09-15T08:37:21.354Z,19.74
2022-09-15T08:38:21.068Z,19.72
2022-09-15T08:39:21.046Z,19.75
2022-09-15T08:40:21.161Z,19.71
2022-09-15T08:41:21.015Z,19.63
2022-09-15T08:42:21.013Z,19.62
2022-09-15T08:43:21.006Z,19.62
2022-09-15T08:44:21.013Z,19.70
2022-09-15T08:45:20.996Z,19.71
2022-09-15T08:46:21.040Z,19.74
2022-09-15T08:47:20.955Z,19.70
2022-09-15T08:48:20.955Z,19.64
2022-09-15T08:49:35.793Z,19.64
2022-09-15T08:50:21.976Z,19.67
2022-09-15T08:51:20.894Z,19.72
2022-09-15T08:52:20.875Z,19.82
2022-09-15T08:53:20.865Z,19.92
2022-09-15T08:54:20.883Z,20.00
2022-09-15T08:55:20.911Z,20.07
2022-09-15T08:56:20.875Z,20.21
2022-09-15T08:57:20.847Z,20.34
2022-09-15T08:58:20.858Z,20.49
2022-09-15T08:59:20.853Z,20.56
2022-09-15T09:00:20.825Z,20.68
2022-09-15T09:01:20.889Z,20.68
2022-09-15T09:02:20.835Z,20.70
2022-09-15T09:03:20.838Z,20.75
2022-09-15T09:04:20.818Z,20.85
2022-09-15T09:05:20.813Z,20.86
2022-09-15T09:06:20.784Z,20.88
2022-09-15T09:07:20.792Z,20.82
2022-09-15T09:08:20.769Z,20.70
2022-09-15T09:09:20.759Z,20.63
2022-09-15T09:10:20.763Z,20.63
2022-09-15T09:11:20.761Z,20.66
2022-09-15T09:12:20.804Z,20.68
2022-09-15T09:13:20.703Z,20.70
2022-09-15T09:14:20.710Z,20.71
2022-09-15T09:15:20.738Z,20.74
2022-09-15T09:16:20.730Z,20.80
2022-09-15T09:17:20.645Z,20.78
2022-09-15T09:18:20.637Z,20.78
2022-09-15T09:19:20.723Z,20.73
2022-09-15T09:20:20.647Z,20.70
2022-09-15T09:21:20.656Z,20.64
2022-09-15T09:22:20.626Z,20.73
2022-09-15T09:23:20.619Z,20.78
2022-09-15T09:24:20.611Z,20.89
2022-09-15T09:25:27.695Z,21.00
2022-09-15T09:26:21.613Z,21.03
2022-09-15T09:27:20.544Z,21.08
2022-09-15T09:28:20.598Z,21.17
2022-09-15T09:29:20.534Z,21.37
2022-09-15T09:30:20.568Z,21.51
2022-09-15T09:31:20.569Z,21.58
2022-09-15T09:32:21.765Z,21.70
2022-09-15T09:33:20.478Z,21.65
2022-09-15T09:34:20.481Z,21.62
2022-09-15T09:35:20.477Z,21.60
2022-09-15T09:36:20.465Z,21.54
2022-09-15T09:37:20.458Z,21.51
2022-09-15T09:38:20.488Z,21.51
2022-09-15T09:39:20.419Z,21.47
2022-09-15T09:40:20.438Z,21.48
2022-09-15T09:41:20.438Z,21.50
2022-09-15T09:42:20.378Z,21.45
2022-09-15T09:43:20.368Z,21.40
2022-09-15T09:44:20.410Z,21.37
2022-09-15T09:45:20.346Z,21.45
2022-09-15T09:46:20.431Z,21.54
2022-09-15T09:47:20.399Z,21.63
2022-09-15T09:48:20.368Z,21.69
2022-09-15T09:49:20.309Z,21.77
2022-09-15T09:50:20.328Z,21.84
2022-09-15T09:51:20.293Z,21.89
2022-09-15T09:52:22.081Z,22.00
2022-09-15T09:53:20.371Z,22.07
2022-09-15T09:54:20.279Z,21.97
2022-09-15T09:55:20.260Z,21.81
2022-09-15T09:56:20.247Z,21.53
2022-09-15T09:57:20.278Z,21.41
2022-09-15T09:58:20.343Z,21.38
2022-09-15T09:59:20.209Z,21.28
2022-09-15T10:00:20.189Z,21.23
2022-09-15T10:01:20.261Z,21.10
2022-09-15T10:02:20.190Z,20.98
2022-09-15T10:03:20.141Z,20.92
2022-09-15T10:04:20.304Z,20.90
2022-09-15T10:05:20.139Z,20.93
2022-09-15T10:06:20.146Z,20.96
2022-09-15T10:07:20.137Z,21.01
2022-09-15T10:08:20.145Z,21.23
2022-09-15T10:09:20.187Z,21.45
2022-09-15T10:10:20.118Z,21.65
2022-09-15T10:11:20.122Z,21.78
2022-09-15T10:12:20.099Z,21.99
2022-09-15T10:13:20.052Z,22.16
2022-09-15T10:14:20.041Z,22.34
2022-09-15T10:15:20.036Z,22.40
2022-09-15T10:16:20.168Z,22.26
2022-09-15T10:17:20.066Z,22.18
2022-09-15T10:18:20.041Z,22.14
2022-09-15T10:19:19.987Z,22.01
2022-09-15T10:20:19.982Z,22.06
2022-09-15T10:21:20.031Z,22.15
2022-09-15T10:22:20.042Z,22.28
2022-09-15T10:23:20.003Z,22.36
2022-09-15T10:24:19.960Z,22.44
2022-09-15T10:25:19.951Z,22.49
2022-09-15T10:26:19.959Z,22.51
2022-09-15T10:27:19.922Z,22.52
2022-09-15T10:28:19.971Z,22.53
2022-09-15T10:29:19.910Z,22.55
2022-09-15T10:30:19.946Z,22.56
2022-09-15T10:31:19.943Z,22.52
2022-09-15T10:32:24.824Z,22.51
2022-09-15T10:33:20.822Z,22.49
2022-09-15T10:34:19.842Z,22.52
2022-09-15T10:35:19.813Z,22.55
2022-09-15T10:36:19.802Z,22.67
2022-09-15T10:37:19.914Z,22.73
2022-09-15T10:38:19.771Z,22.76
2022-09-15T10:39:19.763Z,22.78
2022-09-15T10:40:19.817Z,22.77
2022-09-15T10:41:19.780Z,22.78
2022-09-15T10:42:19.731Z,22.84
2022-09-15T10:43:19.733Z,22.93
2022-09-15T10:44:19.735Z,23.07
2022-09-15T10:45:19.692Z,23.13
2022-09-15T10:46:19.851Z,23.14
2022-09-15T10:47:19.749Z,23.13
2022-09-15T10:48:19.684Z,23.14
2022-09-15T10:49:19.695Z,23.10
2022-09-15T10:50:19.682Z,23.16
2022-09-15T10:51:19.694Z,23.18
2022-09-15T10:52:19.624Z,23.18
2022-09-15T10:53:19.622Z,23.17
2022-09-15T10:54:19.594Z,23.23
2022-09-15T10:55:27.785Z,23.26
2022-09-15T10:56:20.593Z,23.36
2022-09-15T10:57:19.565Z,23.16
2022-09-15T10:58:19.638Z,23.17
2022-09-15T10:59:19.566Z,23.17
2022-09-15T11:00:19.534Z,23.17
2022-09-15T11:01:19.582Z,23.62
2022-09-15T11:02:19.699Z,23.91
2022-09-15T11:03:19.494Z,24.22
2022-09-15T11:04:19.477Z,24.51
2022-09-15T11:05:22.708Z,24.81
2022-09-15T11:06:19.455Z,24.75
2022-09-15T11:07:19.493Z,24.40
2022-09-15T11:08:19.466Z,24.25
2022-09-15T11:09:19.465Z,24.66
2022-09-15T11:10:19.406Z,25.29
2022-09-15T11:11:19.415Z,25.62
2022-09-15T11:12:19.436Z,25.80
2022-09-15T11:13:19.415Z,25.74
2022-09-15T11:14:19.404Z,25.78
2022-09-15T11:15:19.426Z,27.03
2022-09-15T11:16:19.441Z,27.25
2022-09-15T11:17:19.367Z,26.81
2022-09-15T11:18:19.334Z,26.76
2022-09-15T11:19:19.376Z,26.66
2022-09-15T11:20:19.316Z,26.42
2022-09-15T11:21:19.308Z,26.10
2022-09-15T11:22:19.367Z,25.86
2022-09-15T11:23:19.308Z,25.78
2022-09-15T11:24:19.359Z,25.81
2022-09-15T11:25:19.279Z,25.88
2022-09-15T11:26:19.298Z,26.11
2022-09-15T11:27:19.267Z,26.08
2022-09-15T11:28:19.266Z,26.10
2022-09-15T11:29:19.283Z,26.10
2022-09-15T11:30:19.317Z,26.08
2022-09-15T11:31:19.248Z,26.03
2022-09-15T11:32:19.296Z,25.96
2022-09-15T11:33:19.241Z,25.93
2022-09-15T11:34:19.227Z,25.76
2022-09-15T11:35:19.166Z,25.56
2022-09-15T11:36:19.178Z,25.31
2022-09-15T11:37:19.159Z,24.97
2022-09-15T11:38:19.116Z,24.74
2022-09-15T11:39:19.139Z,24.43
2022-09-15T11:40:19.330Z,24.07
2022-09-15T11:41:19.101Z,23.81
2022-09-15T11:42:19.166Z,23.58
2022-09-15T11:43:19.117Z,23.21
2022-09-15T11:44:19.118Z,22.92
2022-09-15T11:45:19.059Z,22.63
2022-09-15T11:46:19.159Z,22.40
2022-09-15T11:47:19.060Z,22.10
2022-09-15T11:48:19.010Z,21.84
2022-09-15T11:49:19.018Z,21.65
2022-09-15T11:50:19.030Z,21.43
2022-09-15T11:51:18.985Z,21.17
2022-09-15T11:52:18.963Z,21.00
2022-09-15T11:53:18.971Z,20.89
2022-09-15T11:54:18.971Z,20.67
2022-09-15T11:55:19.010Z,20.50
2022-09-15T11:56:18.921Z,20.36
2022-09-15T11:57:18.971Z,20.17
2022-09-15T11:58:22.067Z,20.03
2022-09-15T11:59:18.891Z,20.02
2022-09-15T12:00:18.891Z,19.90
2022-09-15T12:01:18.895Z,19.78
2022-09-15T12:02:19.006Z,19.77
2022-09-15T12:03:19.077Z,19.78
2022-09-15T12:04:18.881Z,19.77
2022-09-15T12:05:19.514Z,19.72
2022-09-15T12:06:18.802Z,19.75
2022-09-15T12:07:18.804Z,19.71
2022-09-15T12:08:18.781Z,19.75
2022-09-15T12:09:18.809Z,19.77
2022-09-15T12:10:18.783Z,19.77
2022-09-15T12:11:18.838Z,19.77
2022-09-15T12:12:18.844Z,19.72
2022-09-15T12:13:18.808Z,19.67
2022-09-15T12:14:18.841Z,19.63
2022-09-15T12:15:18.871Z,19.62
2022-09-15T12:16:18.767Z,19.55
2022-09-15T12:17:18.812Z,19.49
2022-09-15T12:18:37.323Z,19.41
2022-09-15T12:19:19.703Z,19.35
2022-09-15T12:20:18.662Z,19.38
2022-09-15T12:21:18.675Z,19.37
2022-09-15T12:22:18.702Z,19.39
2022-09-15T12:23:18.671Z,19.38
2022-09-15T12:24:18.614Z,19.44
2022-09-15T12:25:18.605Z,19.45
2022-09-15T12:26:18.613Z,19.48
2022-09-15T12:27:18.572Z,19.52
2022-09-15T12:28:18.623Z,19.53
2022-09-15T12:29:18.605Z,19.49
2022-09-15T12:30:18.563Z,19.49
2022-09-15T12:31:18.578Z,19.45
2022-09-15T12:32:18.552Z,19.39
2022-09-15T12:33:18.566Z,19.42
2022-09-15T12:34:18.522Z,19.42
2022-09-15T12:35:18.517Z,19.42
2022-09-15T12:36:18.517Z,19.47
2022-09-15T12:37:18.503Z,19.52
2022-09-15T12:38:18.513Z,19.56
2022-09-15T12:39:18.500Z,19.60
2022-09-15T12:40:18.497Z,19.70
2022-09-15T12:41:18.465Z,19.75
2022-09-15T12:42:18.446Z,19.81
2022-09-15T12:43:18.493Z,19.81
2022-09-15T12:44:18.451Z,19.85
2022-09-15T12:45:18.382Z,19.84
2022-09-15T12:46:18.424Z,19.87
2022-09-15T12:47:18.644Z,19.79
2022-09-15T12:48:18.331Z,19.89
2022-09-15T12:49:18.315Z,19.96
2022-09-15T12:50:18.343Z,20.04
2022-09-15T12:51:18.348Z,20.17
2022-09-15T12:52:18.332Z,20.34